Time;durP1;ratioP1;P1;durP2;ratioP2;P2;SDS_P1;SDS_P2;PMS_P1;PMS_P2;Temp;Humidity;BMP_temperature;BMP_pressure;BME280_temperature;BME280_humidity;BME280_pressure;Samples;Min_cycle;Max_cycle;Signal;HPM_P1;HPM_P2
2023/09/04 00:03:22;;;;;;;10.52;4.10;;;;;;;25.34;100.00;100525.84;20647951;28;20713;-73
2023/09/04 00:13:44;;;;;;;10.88;4.00;;;;;;;25.29;100.00;100526.09;20622435;28;20634;-73
2023/09/04 00:24:09;;;;;;;8.85;4.10;;;;;;;25.23;100.00;100520.97;20658209;28;20050;-73
2023/09/04 00:34:31;;;;;;;11.38;4.07;;;;;;;25.16;100.00;100514.13;20643268;28;20634;-73
2023/09/04 00:44:57;;;;;;;15.00;4.65;;;;;;;25.14;100.00;100499.81;20644432;28;20046;-73
2023/09/04 00:55:20;;;;;;;14.45;3.97;;;;;;;25.08;100.00;100500.09;20644354;28;20045;-73
2023/09/04 01:05:44;;;;;;;11.10;4.20;;;;;;;25.01;100.00;100487.84;20655369;28;20050;-73
2023/09/04 01:16:07;;;;;;;8.80;3.58;;;;;;;24.94;100.00;100481.84;20639950;28;20366;-73
2023/09/04 01:26:39;;;;;;;8.95;3.42;;;;;;;24.89;100.00;100465.00;20643296;28;20133;-73
2023/09/04 01:37:02;;;;;;;10.40;4.03;;;;;;;24.92;100.00;100461.28;20641280;28;20066;-73
2023/09/04 01:47:27;;;;;;;8.90;3.38;;;;;;;24.92;100.00;100443.25;20650005;28;20418;-73
2023/09/04 01:57:49;;;;;;;11.38;3.63;;;;;;;24.94;100.00;100432.38;20638429;28;20142;-73
2023/09/04 02:08:15;;;;;;;8.00;4.10;;;;;;;24.96;100.00;100430.47;20633771;28;20050;-73
2023/09/04 02:18:38;;;;;;;11.02;3.30;;;;;;;24.91;100.00;100443.31;20608870;28;20065;-73
2023/09/04 02:29:02;;;;;;;9.32;3.45;;;;;;;24.88;100.00;100443.44;20634720;28;20078;-74
2023/09/04 02:39:25;;;;;;;9.75;3.33;;;;;;;24.91;100.00;100429.81;20647556;28;20558;-73
2023/09/04 02:49:49;;;;;;;8.25;3.88;;;;;;;25.00;100.00;100432.97;20632039;28;20054;-74
2023/09/04 03:00:13;;;;;;;8.68;3.83;;;;;;;24.99;100.00;100447.41;20642982;28;20046;-74
2023/09/04 03:10:38;;;;;;;11.30;3.85;;;;;;;25.00;100.00;100432.97;20646396;28;20454;-73
2023/09/04 03:21:00;;;;;;;11.38;4.13;;;;;;;24.98;100.00;100423.16;20652831;28;20046;-73
2023/09/04 03:31:26;;;;;;;9.05;3.83;;;;;;;24.91;100.00;100398.28;20662974;28;20052;-74
2023/09/04 03:41:48;;;;;;;8.38;3.85;;;;;;;24.86;100.00;100394.03;20647119;28;20060;-74
2023/09/04 03:52:12;;;;;;;9.77;3.72;;;;;;;24.82;100.00;100387.88;20641138;28;20458;-73
2023/09/04 04:02:35;;;;;;;10.93;4.38;;;;;;;24.85;100.00;100400.38;20652804;28;20124;-74
2023/09/04 04:12:59;;;;;;;9.48;3.95;;;;;;;24.98;100.00;100391.63;20654627;28;20058;-73
2023/09/04 04:23:22;;;;;;;9.23;4.07;;;;;;;25.08;100.00;100386.63;20658335;28;20046;-73
2023/09/04 04:33:46;;;;;;;12.32;4.60;;;;;;;25.27;100.00;100392.84;20645086;28;20054;-73
2023/09/04 04:44:09;;;;;;;11.30;4.20;;;;;;;25.50;100.00;100391.69;20658377;28;20418;-73
2023/09/04 04:54:34;;;;;;;10.05;4.38;;;;;;;25.64;100.00;100389.16;20659154;28;20590;-73
2023/09/04 05:04:56;;;;;;;13.55;4.15;;;;;;;25.83;100.00;100405.31;20629764;28;20046;-73
2023/09/04 05:15:20;;;;;;;10.40;3.63;;;;;;;26.30;100.00;100401.88;20625709;28;20128;-74
2023/09/04 05:25:49;;;;;;;10.50;3.80;;;;;;;26.92;100.00;100407.38;20633151;28;20042;-74
2023/09/04 05:36:13;;;;;;;10.00;3.65;;;;;;;27.85;100.00;100403.66;20638553;28;20050;-74
2023/09/04 05:46:37;;;;;;;8.48;3.58;;;;;;;27.97;100.00;100392.03;20644224;28;20038;-74
2023/09/04 05:57:02;;;;;;;10.65;4.00;;;;;;;28.66;100.00;100386.72;20643140;28;20050;-74
2023/09/04 06:07:24;;;;;;;6.63;2.97;;;;;;;28.37;100.00;100393.16;20635145;28;20093;-74
2023/09/04 06:17:48;;;;;;;9.88;3.30;;;;;;;28.22;100.00;100403.16;20647323;28;20450;-75
2023/09/04 06:28:12;;;;;;;8.63;3.22;;;;;;;28.30;100.00;100400.81;20617437;28;20062;-74
2023/09/04 06:38:36;;;;;;;6.93;3.50;;;;;;;28.37;100.00;100410.31;20653225;28;20403;-73
2023/09/04 06:48:58;;;;;;;11.95;3.30;;;;;;;28.68;100.00;100402.94;20630201;28;20105;-74
2023/09/04 06:59:23;;;;;;;8.82;3.30;;;;;;;29.78;100.00;100413.63;20617647;28;20065;-74
2023/09/04 07:09:45;;;;;;;6.68;3.28;;;;;;;30.74;97.52;100412.19;20642519;28;20057;-73
2023/09/04 07:20:11;;;;;;;11.18;3.92;;;;;;;30.56;86.60;100410.81;20690773;28;20092;-74
2023/09/04 07:30:34;;;;;;;7.43;3.30;;;;;;;30.87;81.77;100410.28;20655661;28;20084;-74
2023/09/04 07:41:03;;;;;;;7.75;3.15;;;;;;;31.64;70.16;100409.00;20649331;28;20051;-74
2023/09/04 07:51:26;;;;;;;7.97;3.15;;;;;;;32.04;62.84;100399.41;20648876;28;20054;-74
2023/09/04 08:01:50;;;;;;;6.65;3.03;;;;;;;32.91;57.19;100386.88;20649760;28;20046;-74
2023/09/04 08:12:13;;;;;;;12.10;3.20;;;;;;;32.59;52.73;100386.78;20649991;28;20057;-74
2023/09/04 08:22:37;;;;;;;8.05;3.17;;;;;;;33.05;50.41;100385.75;20649151;28;20050;-74
2023/09/04 08:32:59;;;;;;;10.63;3.40;;;;;;;33.09;49.98;100382.59;20650126;28;20046;-73
2023/09/04 08:43:24;;;;;;;5.85;3.38;;;;;;;33.46;49.84;100380.41;20671983;28;20058;-73
2023/09/04 08:53:49;;;;;;;9.10;3.70;;;;;;;33.84;49.05;100388.06;20648782;28;20587;-74
2023/09/04 09:04:15;;;;;;;9.27;3.63;;;;;;;34.05;50.42;100362.50;20647600;28;20054;-74
2023/09/04 09:14:37;;;;;;;9.93;3.47;;;;;;;34.70;49.36;100360.19;20650422;28;20076;-74
2023/09/04 09:25:03;;;;;;;10.23;3.80;;;;;;;34.61;49.99;100349.19;20654333;28;20042;-74
2023/09/04 09:35:25;;;;;;;7.18;3.80;;;;;;;35.09;49.43;100357.56;20671860;28;20050;-74
2023/09/04 09:45:51;;;;;;;12.95;3.97;;;;;;;35.24;48.24;100349.78;20651041;28;20420;-74
2023/09/04 09:56:15;;;;;;;9.32;3.47;;;;;;;35.10;47.36;100351.06;20655817;28;20112;-74
2023/09/04 10:06:42;;;;;;;8.70;3.30;;;;;;;34.72;47.66;100347.22;20640344;28;20046;-74
2023/09/04 10:17:08;;;;;;;12.90;3.83;;;;;;;34.78;48.89;100343.06;20639221;28;20072;-74
2023/09/04 10:27:36;;;;;;;8.80;3.65;;;;;;;35.13;49.01;100326.03;20644521;28;20129;-74
2023/09/04 10:37:59;;;;;;;10.32;3.47;;;;;;;35.06;48.56;100328.50;20651444;28;20568;-74
2023/09/04 10:48:43;;;;;;;7.82;3.50;;;;;;;34.92;48.39;100347.28;20651162;28;20152;-74
2023/09/04 10:59:06;;;;;;;12.68;3.67;;;;;;;34.85;46.71;100340.63;20639228;28;20390;-74
2023/09/04 11:09:32;;;;;;;9.38;3.58;;;;;;;34.57;45.02;100317.56;20651135;28;20046;-74
2023/09/04 11:19:55;;;;;;;9.60;3.40;;;;;;;34.17;46.57;100320.28;20636732;28;20096;-74
2023/09/04 11:30:19;;;;;;;8.75;3.78;;;;;;;34.12;47.66;100304.28;20647797;28;20133;-73
2023/09/04 11:40:41;;;;;;;10.00;4.28;;;;;;;34.10;48.57;100309.00;20658758;28;20096;-73
2023/09/04 11:51:07;;;;;;;10.25;3.60;;;;;;;34.14;48.95;100302.25;20665178;28;20497;-74
2023/09/04 12:01:30;;;;;;;11.50;4.13;;;;;;;33.89;49.71;100295.34;20650906;28;20058;-74
2023/09/04 12:11:54;;;;;;;9.52;3.67;;;;;;;33.94;49.44;100295.81;20649865;28;20043;-74
2023/09/04 12:22:17;;;;;;;8.43;3.30;;;;;;;33.65;48.65;100280.19;20648802;28;20118;-74
2023/09/04 12:32:43;;;;;;;12.65;4.00;;;;;;;33.12;48.34;100283.84;20658436;28;20058;-75
2023/09/04 12:43:06;;;;;;;9.85;3.30;;;;;;;33.05;48.64;100288.09;20663126;28;20439;-74
2023/09/04 12:53:30;;;;;;;9.52;3.20;;;;;;;33.02;46.91;100284.75;20653753;28;20070;-74
2023/09/04 13:03:52;;;;;;;10.65;3.65;;;;;;;32.76;48.40;100284.22;20638226;28;20124;-75
2023/09/04 13:14:16;;;;;;;9.50;3.17;;;;;;;33.02;50.14;100268.34;20644142;28;20113;-74
2023/09/04 13:24:39;;;;;;;14.60;3.65;;;;;;;32.65;50.85;100244.09;20640609;28;20048;-74
2023/09/04 13:35:07;;;;;;;11.25;3.05;;;;;;;32.50;52.84;100237.19;20635932;28;20054;-75
2023/09/04 13:45:29;;;;;;;5.95;2.53;;;;;;;32.89;51.76;100210.22;20652153;28;20054;-75
2023/09/04 13:55:53;;;;;;;12.88;3.00;;;;;;;32.56;53.08;100216.69;20650074;28;20046;-74
2023/09/04 14:06:16;;;;;;;8.35;3.42;;;;;;;32.06;53.13;100217.13;20615389;28;20414;-74
2023/09/04 14:16:40;;;;;;;7.25;2.75;;;;;;;31.44;52.93;100227.66;20602013;28;20093;-73
2023/09/04 14:27:02;;;;;;;11.60;3.58;;;;;;;31.20;52.91;100232.31;20587404;28;20380;-74
2023/09/04 14:37:26;;;;;;;19.85;3.10;;;;;;;31.35;53.16;100222.94;20610794;28;20076;-74
2023/09/04 14:47:48;;;;;;;9.43;2.80;;;;;;;31.26;52.51;100223.66;20612748;28;20055;-74
2023/09/04 14:58:12;;;;;;;10.23;3.45;;;;;;;31.03;54.28;100221.84;20628786;28;20047;-74
2023/09/04 15:08:37;;;;;;;7.95;3.22;;;;;;;30.50;59.74;100218.66;20605548;28;20061;-74
2023/09/04 15:19:01;;;;;;;9.90;3.30;;;;;;;30.16;61.06;100242.06;20620317;28;21272;-73
2023/09/04 15:29:24;;;;;;;9.15;3.53;;;;;;;29.87;60.89;100235.13;20601889;28;20042;-73
2023/09/04 15:39:50;;;;;;;10.73;4.05;;;;;;;29.62;61.73;100245.06;20620625;28;20130;-74
2023/09/04 15:50:12;;;;;;;11.57;3.42;;;;;;;29.44;63.34;100260.00;20594925;28;20046;-74
2023/09/04 16:00:36;;;;;;;9.25;3.13;;;;;;;29.03;65.64;100259.25;20603347;28;20057;-73
2023/09/04 16:10:59;;;;;;;10.60;3.92;;;;;;;28.78;67.26;100250.06;20588858;28;20068;-74
2023/09/04 16:21:23;;;;;;;13.32;4.07;;;;;;;28.49;72.37;100256.53;20584005;28;20065;-74
2023/09/04 16:31:45;;;;;;;9.70;4.07;;;;;;;28.29;75.77;100262.44;20619188;28;20085;-74
2023/09/04 16:42:09;;;;;;;10.15;4.45;;;;;;;28.17;75.79;100268.66;20607246;28;20506;-74
2023/09/04 16:52:32;;;;;;;12.50;4.57;;;;;;;28.02;78.14;100271.38;20634557;28;20053;-73
2023/09/04 17:02:56;;;;;;;8.68;4.10;;;;;;;27.72;79.95;100268.78;20625535;28;20523;-73
2023/09/04 17:13:18;;;;;;;15.15;7.85;;;;;;;27.70;78.90;100258.97;20615948;28;20055;-73
2023/09/04 17:23:42;;;;;;;11.25;4.85;;;;;;;27.53;79.26;100256.47;20639364;28;20056;-74
2023/09/04 17:34:05;;;;;;;11.77;4.07;;;;;;;27.43;79.37;100274.25;20634474;28;20088;-74
2023/09/04 17:44:28;;;;;;;9.73;3.58;;;;;;;27.47;77.82;100283.94;20637654;28;20053;-73
2023/09/04 17:54:51;;;;;;;7.10;4.13;;;;;;;27.38;77.75;100283.53;20616534;28;20046;-73
2023/09/04 18:05:15;;;;;;;11.43;4.82;;;;;;;27.12;77.40;100281.53;20647178;28;20514;-74
2023/09/04 18:15:37;;;;;;;9.68;3.63;;;;;;;26.96;77.61;100292.44;20658674;28;20057;-74
2023/09/04 18:26:01;;;;;;;10.05;3.47;;;;;;;26.88;77.92;100289.28;20655708;28;20564;-74
2023/09/04 18:36:23;;;;;;;7.85;3.45;;;;;;;26.79;78.04;100295.22;20640392;28;20046;-74
2023/09/04 18:46:47;;;;;;;11.52;4.50;;;;;;;26.68;79.38;100289.56;20655285;28;20046;-73
2023/09/04 18:57:10;;;;;;;12.77;4.35;;;;;;;26.54;81.23;100313.88;20654041;28;20093;-73
2023/09/04 19:07:34;;;;;;;7.90;3.90;;;;;;;26.53;82.90;100309.41;20648402;28;20494;-73
2023/09/04 19:17:56;;;;;;;11.20;4.18;;;;;;;26.45;85.09;100300.88;20631868;28;20560;-74
2023/09/04 19:28:20;;;;;;;11.50;5.53;;;;;;;26.40;87.12;100286.69;20624944;28;20104;-74
2023/09/04 19:38:43;;;;;;;11.55;4.38;;;;;;;26.42;86.04;100296.50;20624733;28;20058;-73
2023/09/04 19:49:07;;;;;;;9.82;3.92;;;;;;;26.32;87.36;100281.72;20645006;28;20073;-73
2023/09/04 19:59:29;;;;;;;11.88;3.95;;;;;;;26.27;86.95;100278.41;20646429;28;20100;-74
2023/09/04 20:09:53;;;;;;;11.43;4.18;;;;;;;26.19;87.53;100267.09;20657019;28;20051;-74
2023/09/04 20:20:17;;;;;;;10.43;4.00;;;;;;;26.18;87.05;100273.50;20662239;28;20046;-74
2023/09/04 20:30:49;;;;;;;10.40;4.20;;;;;;;26.10;87.92;100271.22;20665288;28;20065;-74
2023/09/04 20:41:11;;;;;;;8.18;4.40;;;;;;;26.05;88.62;100267.03;20649535;28;20053;-73
2023/09/04 20:51:35;;;;;;;9.55;4.32;;;;;;;25.96;90.57;100248.59;20659304;28;20058;-74
2023/09/04 21:01:58;;;;;;;11.80;4.40;;;;;;;25.90;91.45;100236.31;20647651;28;20406;-74
2023/09/04 23:31:13;;;;;;;11.60;5.32;;;;;;;24.41;100.00;100195.59;20647612;28;20057;-73
2023/09/04 23:52:18;;;;;;;13.10;5.30;;;;;;;24.48;100.00;100175.41;20658122;28;20054;-73
